M I D A S
Marine Information and Data Acquisition System
Tripno 592 of the Zeeleeuw from 2003-09-17 06:21:40 to 2003-09-17 11:50:16
Back to CruiseResearch ActivitiesStationsMapUnderway DataData graphs

EquipmentUnitsComment
TimeDGPSUTC
LatitudeDGPSDM.mWGS84
LongitudeDGPSDM.mWGS84
HeadingGyrodeg 
SOGDGPSknotsSpeed over ground
COGDGPSdegCourse over ground
DepthEcho soundermeters200 kHz
Missing or incorrect values are displayed as -999
Navigation data collected by the RV Zeeleeuw from 2003-09-17 06:21:40 to 2003-09-17 11:50:16
                                                                                    Next 1000 lines
Time Latitude Longitude Heading SOG COG Depth
2003-09-17 06:21:50 51°13.75 2°55.7 329.4 5.1 325 12
2003-09-17 06:21:54 51°13.76 2°55.7 329.8 5.4 325 12
2003-09-17 06:22:00 51°13.77 2°55.69 330.7 5.7 326 12.3
2003-09-17 06:22:04 51°13.77 2°55.68 331.6 6 327 12.4
2003-09-17 06:22:10 51°13.78 2°55.67 333 6.1 328 12.2
2003-09-17 06:22:14 51°13.79 2°55.67 334 6.2 329 12.3
2003-09-17 06:22:20 51°13.8 2°55.66 335.3 6.4 331 12.2
2003-09-17 06:22:24 51°13.8 2°55.65 335.9 6.6 331 12.5
2003-09-17 06:22:30 51°13.81 2°55.65 336.2 6.7 331 12.5
2003-09-17 06:22:34 51°13.82 2°55.64 336.4 6.8 332 12.5
2003-09-17 06:22:40 51°13.83 2°55.63 336.7 7 332 12.1
2003-09-17 06:22:46 51°13.84 2°55.62 337.1 7.1 333 11.9
2003-09-17 06:22:50 51°13.85 2°55.62 337.5 7.1 333 11.6
2003-09-17 06:22:54 51°13.85 2°55.61 337.7 7.2 333 12
2003-09-17 06:22:58 51°13.86 2°55.61 338 7.3 333 11.8
2003-09-17 06:23:04 51°13.87 2°55.6 338.3 7.4 333 12.2
2003-09-17 06:23:10 51°13.88 2°55.59 338.9 7.4 333 12.1
2003-09-17 06:23:14 51°13.89 2°55.58 339 7.5 334 12.4
2003-09-17 06:23:20 51°13.9 2°55.57 339.5 7.5 334 12.2
2003-09-17 06:23:24 51°13.91 2°55.57 340.4 7.6 335 12.3
2003-09-17 06:23:30 51°13.92 2°55.56 341.1 7.6 335 12.3
2003-09-17 06:23:34 51°13.93 2°55.55 341.4 7.6 336 12.2
2003-09-17 06:23:38 51°13.94 2°55.55 341.6 7.6 336 12.3
2003-09-17 06:23:44 51°13.95 2°55.54 341.6 7.7 336 12.3
2003-09-17 06:23:50 51°13.96 2°55.53 341.8 7.7 337 12.2
2003-09-17 06:23:54 51°13.97 2°55.53 342.2 7.7 337 12.2
2003-09-17 06:24:00 51°13.98 2°55.52 342.2 7.7 337 12
2003-09-17 06:24:04 51°13.99 2°55.52 342.2 7.7 337 12
2003-09-17 06:24:10 51°14 2°55.51 342.1 7.7 337 11.9
2003-09-17 06:24:14 51°14 2°55.5 342 7.8 336 11.9
2003-09-17 06:24:20 51°14.02 2°55.49 341.9 7.7 337 11.9
2003-09-17 06:24:24 51°14.03 2°55.49 342.3 7.7 337 11.8
2003-09-17 06:24:30 51°14.04 2°55.48 342.6 7.8 338 11.9
2003-09-17 06:24:34 51°14.05 2°55.47 342.9 7.9 337 11.9
2003-09-17 06:24:38 51°14.06 2°55.47 343.1 7.9 338 11.9
2003-09-17 06:24:44 51°14.07 2°55.46 342.7 8 337 11.7
2003-09-17 06:24:50 51°14.08 2°55.45 341.9 8.2 337 11.7
2003-09-17 06:24:54 51°14.09 2°55.44 341.8 8.3 337 11.7
2003-09-17 06:25:00 51°14.1 2°55.44 342.1 8.4 337 11.8
2003-09-17 06:25:04 51°14.11 2°55.43 341.9 8.8 335 11.7
2003-09-17 06:25:10 51°14.12 2°55.42 340.4 9 334 11.6
2003-09-17 06:25:14 51°14.13 2°55.41 338.9 9.3 333 11.7
2003-09-17 06:25:20 51°14.15 2°55.4 337.9 9.6 332 11.9
2003-09-17 06:25:24 51°14.16 2°55.39 337.5 9.8 332 11.9
2003-09-17 06:25:30 51°14.17 2°55.38 337.2 10.1 331 12.6
2003-09-17 06:25:34 51°14.18 2°55.37 336.7 10.2 330 12
2003-09-17 06:25:38 51°14.19 2°55.36 335.4 10.4 329 12.3
2003-09-17 06:25:44 51°14.2 2°55.35 333.7 10.4 327 12.1
2003-09-17 06:25:50 51°14.22 2°55.33 331.7 10.6 325 12.1
2003-09-17 06:25:54 51°14.23 2°55.32 329.6 10.6 323 12
2003-09-17 06:26:00 51°14.24 2°55.3 327.6 10.7 321 12.1
2003-09-17 06:26:04 51°14.25 2°55.29 325.8 10.7 318 12.1
2003-09-17 06:26:10 51°14.26 2°55.27 323.2 10.8 316 12.4
2003-09-17 06:26:14 51°14.27 2°55.25 321.1 10.8 315 12.3
2003-09-17 06:26:18 51°14.28 2°55.24 319.1 10.8 313 12.3
2003-09-17 06:26:24 51°14.29 2°55.22 317.1 10.9 311 12.4
2003-09-17 06:26:30 51°14.3 2°55.2 315.7 10.9 309 12.3
2003-09-17 06:26:34 51°14.31 2°55.18 314.6 10.9 308 12.4
2003-09-17 06:26:40 51°14.32 2°55.16 313.1 11 307 12.4
2003-09-17 06:26:44 51°14.33 2°55.14 312 11 306 12.3
2003-09-17 06:26:50 51°14.34 2°55.12 311.3 11 306 12.3
2003-09-17 06:26:54 51°14.35 2°55.1 311 11 305 12.5
2003-09-17 06:26:58 51°14.36 2°55.09 310.8 11.1 305 12.1
2003-09-17 06:27:04 51°14.37 2°55.06 310.6 11.1 305 12.2
2003-09-17 06:27:10 51°14.38 2°55.04 310.1 11.4 304 12.3
2003-09-17 06:27:14 51°14.38 2°55.02 309.9 11.6 305 12.3
2003-09-17 06:27:20 51°14.39 2°55 310.3 11.8 305 11.8
2003-09-17 06:27:24 51°14.4 2°54.98 310.9 12 306 11.8
2003-09-17 06:27:30 51°14.41 2°54.95 311.9 12.1 307 12
2003-09-17 06:27:34 51°14.42 2°54.94 312.4 12.2 306 12.2
2003-09-17 06:27:40 51°14.43 2°54.91 311.1 12.3 304 12.2
2003-09-17 06:27:44 51°14.44 2°54.89 309 12.3 301 12.2
2003-09-17 06:27:50 51°14.45 2°54.86 305 12.3 298 11.8
2003-09-17 06:27:54 51°14.46 2°54.84 301.9 12.2 294 11.8
2003-09-17 06:27:58 51°14.46 2°54.82 297.8 12.2 290 12.2
2003-09-17 06:28:04 51°14.47 2°54.79 293.3 12.1 285 12.2
2003-09-17 06:28:10 51°14.47 2°54.76 287.9 12.1 281 11.9
2003-09-17 06:28:14 51°14.47 2°54.74 284.5 12.1 278 12.1
2003-09-17 06:28:20 51°14.47 2°54.71 280.7 12.2 275 12.4
2003-09-17 06:28:24 51°14.48 2°54.68 278.5 12.4 272 12.3
2003-09-17 06:28:30 51°14.48 2°54.65 275.8 12.5 270 12.1
2003-09-17 06:28:34 51°14.47 2°54.63 272.5 12.5 266 11.5
2003-09-17 06:28:40 51°14.47 2°54.6 266.3 12.5 259 11.8
2003-09-17 06:28:44 51°14.47 2°54.58 261.2 12.5 255 12
2003-09-17 06:28:50 51°14.46 2°54.54 255.9 12.5 249 11.7
2003-09-17 06:28:54 51°14.45 2°54.52 252.1 12.6 248 11.7
2003-09-17 06:29:00 51°14.45 2°54.49 249.7 12.6 245 12.1
2003-09-17 06:29:04 51°14.44 2°54.47 248.1 12.6 243 12.3
2003-09-17 06:29:10 51°14.43 2°54.44 246.8 12.7 242 12.5
2003-09-17 06:29:14 51°14.42 2°54.42 246.1 12.7 242 11.7
2003-09-17 06:29:20 51°14.41 2°54.39 245.6 12.6 242 10.9
2003-09-17 06:29:24 51°14.41 2°54.37 245.3 12.5 242 10.7
2003-09-17 06:29:30 51°14.4 2°54.35 245.3 12.5 242 10.6
2003-09-17 06:29:34 51°14.39 2°54.33 245.4 12.6 242 10.5
2003-09-17 06:29:40 51°14.38 2°54.3 245.4 12.7 242 10.5
2003-09-17 06:29:44 51°14.37 2°54.28 245.9 12.8 243 10.5
2003-09-17 06:29:50 51°14.36 2°54.25 246.2 12.8 243 10.4
2003-09-17 06:29:54 51°14.36 2°54.23 246.5 12.8 243 10.4
2003-09-17 06:30:00 51°14.35 2°54.19 246.7 12.9 243 10.3
2003-09-17 06:30:04 51°14.34 2°54.17 246.7 13 243 10.3
2003-09-17 06:30:10 51°14.33 2°54.14 246.7 13 243 10.4
2003-09-17 06:30:14 51°14.32 2°54.12 246.4 13 243 10.3
2003-09-17 06:30:20 51°14.31 2°54.09 246.2 13.1 242 10.3
2003-09-17 06:30:24 51°14.31 2°54.07 245.8 13.1 242 10.3
2003-09-17 06:30:30 51°14.3 2°54.04 245.5 13.2 242 10.3
2003-09-17 06:30:34 51°14.29 2°54.02 245.3 13.2 241 10.3
2003-09-17 06:30:40 51°14.28 2°53.99 245.3 13.2 241 10.3
2003-09-17 06:30:44 51°14.27 2°53.97 245.3 13.2 241 10.4
2003-09-17 06:30:50 51°14.26 2°53.94 245.3 13.2 242 10.3
2003-09-17 06:30:54 51°14.25 2°53.92 245.7 13.2 241 10.3
2003-09-17 06:30:58 51°14.25 2°53.9 245.9 13.2 242 10.3
2003-09-17 06:31:06 51°14.23 2°53.86 246.3 13.3 243 10.3
2003-09-17 06:31:10 51°14.23 2°53.84 246.7 13.3 243 10.3
2003-09-17 06:31:14 51°14.22 2°53.81 247 13.3 244 10.3
2003-09-17 06:31:20 51°14.21 2°53.78 247.6 13.3 244 10.4
2003-09-17 06:31:26 51°14.2 2°53.75 247.5 13.3 244 10.3
2003-09-17 06:31:30 51°14.2 2°53.73 247.5 13.3 244 10.4
2003-09-17 06:31:34 51°14.19 2°53.71 247.1 13.2 244 10.4
2003-09-17 06:31:40 51°14.18 2°53.68 247 13.3 243 10.5
2003-09-17 06:31:44 51°14.17 2°53.66 246.6 13.3 243 10.4
2003-09-17 06:31:50 51°14.16 2°53.63 245.9 13.3 242 10.5
2003-09-17 06:31:54 51°14.16 2°53.61 245.3 13.3 242 10.5
2003-09-17 06:31:58 51°14.15 2°53.58 245.2 13.3 242 10.5
2003-09-17 06:32:04 51°14.14 2°53.55 245.8 13.3 243 10.5
2003-09-17 06:32:10 51°14.13 2°53.52 246.2 13.3 243 10.6
2003-09-17 06:32:14 51°14.12 2°53.5 246.5 13.3 243 10.5
2003-09-17 06:32:20 51°14.11 2°53.47 246.5 13.3 243 10.5
2003-09-17 06:32:26 51°14.1 2°53.44 246.4 13.3 243 10.7
2003-09-17 06:32:30 51°14.09 2°53.42 245.9 13.3 242 10.7
2003-09-17 06:32:34 51°14.09 2°53.4 245.5 13.3 242 10.7
2003-09-17 06:32:40 51°14.08 2°53.37 245.2 13.3 241 10.8
2003-09-17 06:32:46 51°14.07 2°53.33 245.1 13.4 242 10.8
2003-09-17 06:32:50 51°14.06 2°53.31 245.3 13.4 242 10.8
2003-09-17 06:32:54 51°14.05 2°53.29 245.7 13.4 242 10.8
2003-09-17 06:33:00 51°14.04 2°53.26 245.9 13.4 242 10.8
2003-09-17 06:33:04 51°14.04 2°53.24 246.2 13.4 242 10.8
2003-09-17 06:33:10 51°14.03 2°53.21 246.4 13.4 243 10.9
2003-09-17 06:33:14 51°14.02 2°53.19 246.7 13.4 243 10.9
2003-09-17 06:33:20 51°14.01 2°53.16 246.9 13.4 243 11
2003-09-17 06:33:24 51°14 2°53.13 247 13.4 243 11
2003-09-17 06:33:30 51°13.99 2°53.1 247.3 13.5 243 11
2003-09-17 06:33:34 51°13.99 2°53.08 247.4 13.5 243 11.1
2003-09-17 06:33:40 51°13.98 2°53.05 247.4 13.5 243 11.1
2003-09-17 06:33:46 51°13.96 2°53.02 247.2 13.5 243 11.1
2003-09-17 06:33:50 51°13.96 2°53 247.1 13.5 243 11.2
2003-09-17 06:33:54 51°13.95 2°52.98 246.8 13.5 243 11.2
2003-09-17 06:34:00 51°13.94 2°52.94 246.5 13.5 242 11.2
2003-09-17 06:34:04 51°13.93 2°52.92 246.1 13.5 242 11.3
2003-09-17 06:34:10 51°13.92 2°52.89 246 13.5 242 11.3
2003-09-17 06:34:14 51°13.92 2°52.87 245.8 13.6 242 11.3
2003-09-17 06:34:18 51°13.91 2°52.85 246.2 13.5 243 11.4
2003-09-17 06:34:24 51°13.9 2°52.82 246.4 13.6 242 11.3
2003-09-17 06:34:30 51°13.89 2°52.78 246.2 13.6 243 11.4
2003-09-17 06:34:34 51°13.88 2°52.76 246.3 13.6 242 11.3
2003-09-17 06:34:40 51°13.87 2°52.73 246 13.6 242 11.4
2003-09-17 06:34:44 51°13.86 2°52.71 245.7 13.6 241 11.4
2003-09-17 06:34:50 51°13.85 2°52.68 245.5 13.6 242 11.4
2003-09-17 06:34:54 51°13.85 2°52.66 245.6 13.6 242 11.5
2003-09-17 06:35:00 51°13.83 2°52.63 245.9 13.6 242 11.4
2003-09-17 06:35:06 51°13.82 2°52.59 246 13.6 243 11.5
2003-09-17 06:35:10 51°13.82 2°52.57 246.5 13.6 243 11.5
2003-09-17 06:35:14 51°13.81 2°52.55 246.7 13.6 242 11.5
2003-09-17 06:35:20 51°13.8 2°52.52 246.5 13.6 242 11.6
2003-09-17 06:35:24 51°13.79 2°52.5 246 13.6 242 11.5
2003-09-17 06:35:30 51°13.78 2°52.47 245.7 13.6 242 11.6
2003-09-17 06:35:34 51°13.77 2°52.45 245.7 13.6 242 11.5
2003-09-17 06:35:38 51°13.77 2°52.42 245.6 13.6 241 11.6
2003-09-17 06:35:44 51°13.76 2°52.39 245.4 13.6 242 11.5
2003-09-17 06:35:50 51°13.75 2°52.36 245.5 13.6 242 11.5
2003-09-17 06:35:54 51°13.74 2°52.34 245.5 13.6 242 11.6
2003-09-17 06:36:00 51°13.73 2°52.31 245.4 13.5 242 11.6
2003-09-17 06:36:04 51°13.72 2°52.29 245.1 13.6 241 11.6
2003-09-17 06:36:10 51°13.71 2°52.26 245.2 13.6 242 11.6
2003-09-17 06:36:14 51°13.7 2°52.23 245.6 13.5 242 11.6
2003-09-17 06:36:20 51°13.69 2°52.2 245.7 13.6 242 11.6
2003-09-17 06:36:24 51°13.69 2°52.18 245.7 13.6 242 11.6
2003-09-17 06:36:30 51°13.67 2°52.15 245.8 13.6 242 11.6
2003-09-17 06:36:34 51°13.67 2°52.13 245.8 13.6 242 11.7
2003-09-17 06:36:40 51°13.66 2°52.1 245.8 13.6 241 11.7
2003-09-17 06:36:44 51°13.65 2°52.08 245.4 13.6 242 11.7
2003-09-17 06:36:50 51°13.64 2°52.04 245.7 13.5 242 11.6
2003-09-17 06:36:54 51°13.63 2°52.02 245.7 13.6 242 11.7
2003-09-17 06:37:00 51°13.62 2°51.99 246.1 13.6 242 11.6
2003-09-17 06:37:04 51°13.61 2°51.97 246.2 13.6 242 11.7
2003-09-17 06:37:10 51°13.6 2°51.94 246 13.6 242 11.7
2003-09-17 06:37:14 51°13.6 2°51.92 245.8 13.6 242 11.8
2003-09-17 06:37:20 51°13.59 2°51.88 245.8 13.6 242 11.6
2003-09-17 06:37:26 51°13.58 2°51.85 245.9 13.6 242 11.7
2003-09-17 06:37:30 51°13.57 2°51.83 246 13.6 242 11.6
2003-09-17 06:37:34 51°13.56 2°51.81 246 13.6 242 11.6
2003-09-17 06:37:40 51°13.55 2°51.78 246 13.6 242 11.6
2003-09-17 06:37:44 51°13.54 2°51.76 246 13.6 242 11.6
2003-09-17 06:37:50 51°13.53 2°51.72 245.9 13.6 242 11.7
2003-09-17 06:37:54 51°13.53 2°51.7 245.8 13.6 242 11.6
2003-09-17 06:38:00 51°13.51 2°51.67 245.6 13.6 242 11.6
2003-09-17 06:38:04 51°13.51 2°51.65 245.6 13.6 242 11.8
2003-09-17 06:38:10 51°13.5 2°51.62 246 13.6 242 11.7
2003-09-17 06:38:14 51°13.49 2°51.6 246.3 13.6 242 11.8
2003-09-17 06:38:18 51°13.48 2°51.58 246.3 13.7 242 12
2003-09-17 06:38:24 51°13.47 2°51.54 246.4 13.6 243 11.8
2003-09-17 06:38:30 51°13.46 2°51.51 246.8 13.6 243 11.9
2003-09-17 06:38:34 51°13.46 2°51.49 247 13.6 243 11.9
2003-09-17 06:38:40 51°13.45 2°51.46 246.9 13.7 243 12
2003-09-17 06:38:44 51°13.44 2°51.44 247.1 13.6 243 11.9
2003-09-17 06:38:50 51°13.43 2°51.41 247.1 13.6 243 11.9
2003-09-17 06:38:54 51°13.42 2°51.38 246.8 13.6 243 11.9
2003-09-17 06:39:00 51°13.41 2°51.35 246.9 13.6 243 11.9
2003-09-17 06:39:04 51°13.4 2°51.33 246.8 13.6 243 11.9
2003-09-17 06:39:10 51°13.39 2°51.3 246.8 13.6 243 12
2003-09-17 06:39:14 51°13.39 2°51.28 246.7 13.6 242 12
2003-09-17 06:39:18 51°13.38 2°51.26 246.4 13.6 242 12
2003-09-17 06:39:26 51°13.37 2°51.21 245.9 13.6 242 12
2003-09-17 06:39:30 51°13.36 2°51.19 245.7 13.6 242 12
2003-09-17 06:39:34 51°13.35 2°51.17 245.7 13.6 242 12
2003-09-17 06:39:40 51°13.34 2°51.14 245.5 13.6 242 12
2003-09-17 06:39:46 51°13.33 2°51.11 245.9 13.5 242 12.1
2003-09-17 06:39:50 51°13.32 2°51.09 246 13.6 242 12
2003-09-17 06:39:54 51°13.32 2°51.07 245.9 13.6 242 12.1
2003-09-17 06:40:00 51°13.31 2°51.03 246 13.5 242 12
2003-09-17 06:40:04 51°13.3 2°51.01 245.8 13.6 241 12.1
2003-09-17 06:40:10 51°13.29 2°50.98 245.7 13.6 242 12.1
2003-09-17 06:40:14 51°13.28 2°50.96 245.7 13.6 242 12
2003-09-17 06:40:20 51°13.27 2°50.93 245.6 13.6 242 12.1
2003-09-17 06:40:24 51°13.26 2°50.91 245.9 13.5 242 12.1
2003-09-17 06:40:30 51°13.25 2°50.88 246.3 13.5 242 12.1
2003-09-17 06:40:34 51°13.25 2°50.85 246.3 13.6 242 12.1
2003-09-17 06:40:38 51°13.24 2°50.83 246.3 13.5 242 12.1
2003-09-17 06:40:44 51°13.23 2°50.8 246.1 13.5 242 12.1
2003-09-17 06:40:50 51°13.22 2°50.77 245.8 13.5 242 12.1
2003-09-17 06:40:54 51°13.21 2°50.75 245.8 13.5 242 12.1
2003-09-17 06:41:00 51°13.2 2°50.72 246.2 13.5 242 12.1
2003-09-17 06:41:04 51°13.19 2°50.7 246 13.5 242 12.1
2003-09-17 06:41:10 51°13.18 2°50.66 245.8 13.6 242 12.2
2003-09-17 06:41:14 51°13.18 2°50.64 246 13.5 243 12.2
2003-09-17 06:41:18 51°13.17 2°50.62 246.3 13.5 242 12.2
2003-09-17 06:41:26 51°13.15 2°50.58 246.3 13.6 242 12.2
2003-09-17 06:41:30 51°13.15 2°50.56 246.3 13.6 242 12.2
2003-09-17 06:41:34 51°13.14 2°50.54 246.3 13.5 243 12.2
2003-09-17 06:41:38 51°13.13 2°50.52 246.2 13.5 242 12.2
2003-09-17 06:41:44 51°13.12 2°50.48 246 13.5 242 12.3
2003-09-17 06:41:50 51°13.11 2°50.45 245.7 13.6 242 12.2
2003-09-17 06:41:54 51°13.1 2°50.43 245.9 13.6 242 12.2
2003-09-17 06:42:00 51°13.09 2°50.4 246 13.5 243 12.3
2003-09-17 06:42:06 51°13.08 2°50.37 246.2 13.5 242 12.3
2003-09-17 06:42:10 51°13.08 2°50.35 246.2 13.5 243 12.2
2003-09-17 06:42:14 51°13.07 2°50.33 246.2 13.6 242 12.3
2003-09-17 06:42:20 51°13.06 2°50.29 246.2 13.6 243 12.3
2003-09-17 06:42:24 51°13.05 2°50.27 246.3 13.6 243 12.3
2003-09-17 06:42:30 51°13.04 2°50.24 246.5 13.6 243 12.3
2003-09-17 06:42:34 51°13.03 2°50.22 246.7 13.6 243 12.1
2003-09-17 06:42:40 51°13.02 2°50.19 246.7 13.6 243 12.3
2003-09-17 06:42:44 51°13.02 2°50.16 246.8 13.6 242 12.4
2003-09-17 06:42:50 51°13 2°50.13 246 13.6 242 12.4
2003-09-17 06:42:54 51°13 2°50.11 245.3 13.6 241 12.3
2003-09-17 06:43:00 51°12.99 2°50.08 244.9 13.6 241 12.4
2003-09-17 06:43:04 51°12.98 2°50.06 244.7 13.6 240 12.4
2003-09-17 06:43:10 51°12.97 2°50.03 244.3 13.6 240 12.4
2003-09-17 06:43:14 51°12.96 2°50.01 243.9 13.6 240 12.3
2003-09-17 06:43:20 51°12.95 2°49.98 243.8 13.6 240 12.5
2003-09-17 06:43:24 51°12.94 2°49.96 243.9 13.6 240 12.4
2003-09-17 06:43:30 51°12.93 2°49.92 244 13.6 241 12.4
2003-09-17 06:43:34 51°12.92 2°49.9 244.3 13.6 241 12.5
2003-09-17 06:43:40 51°12.91 2°49.87 244.7 13.6 241 12.5
2003-09-17 06:43:44 51°12.91 2°49.85 244.7 13.6 241 12.4
2003-09-17 06:43:50 51°12.9 2°49.82 244.7 13.6 241 12.3
2003-09-17 06:43:54 51°12.89 2°49.8 244.5 13.6 240 12.5
2003-09-17 06:44:00 51°12.88 2°49.77 243.8 13.6 240 12.5
2003-09-17 06:44:04 51°12.87 2°49.75 243.7 13.6 240 12.5
2003-09-17 06:44:10 51°12.86 2°49.72 243.7 13.6 240 12.5
2003-09-17 06:44:14 51°12.85 2°49.69 243.8 13.7 241 12.5
2003-09-17 06:44:20 51°12.84 2°49.66 244.7 13.7 241 12.5
2003-09-17 06:44:26 51°12.83 2°49.63 245.2 13.6 241 12.5
2003-09-17 06:44:30 51°12.82 2°49.61 245.2 13.6 241 12.5
2003-09-17 06:44:34 51°12.81 2°49.59 245.3 13.7 241 12.5
2003-09-17 06:44:40 51°12.8 2°49.56 245.4 13.7 242 12.5
2003-09-17 06:44:44 51°12.8 2°49.54 245.5 13.6 242 12.6
2003-09-17 06:44:50 51°12.79 2°49.5 245.6 13.6 242 12.5
2003-09-17 06:44:54 51°12.78 2°49.48 245.9 13.7 242 12.5
2003-09-17 06:45:00 51°12.77 2°49.45 245.9 13.6 242 12.6
2003-09-17 06:45:04 51°12.76 2°49.43 245.8 13.6 241 12.4
2003-09-17 06:45:10 51°12.75 2°49.4 245.2 13.7 241 12.6
2003-09-17 06:45:14 51°12.74 2°49.38 244.7 13.7 241 12.6
2003-09-17 06:45:20 51°12.73 2°49.35 244.6 13.7 241 12.7
2003-09-17 06:45:24 51°12.72 2°49.32 244.6 13.6 241 12.6
2003-09-17 06:45:30 51°12.71 2°49.29 244.6 13.7 241 12.7
2003-09-17 06:45:34 51°12.7 2°49.27 245.1 13.7 241 12.6
2003-09-17 06:45:40 51°12.69 2°49.24 245.3 13.6 242 12.7
2003-09-17 06:45:44 51°12.69 2°49.22 245.4 13.6 241 12.7
2003-09-17 06:45:50 51°12.68 2°49.19 245.1 13.7 241 12.7
2003-09-17 06:45:54 51°12.67 2°49.17 244.8 13.7 241 12.7
2003-09-17 06:46:00 51°12.66 2°49.13 245.4 13.7 243 12.8
2003-09-17 06:46:06 51°12.65 2°49.1 246.5 13.7 243 12.7
2003-09-17 06:46:10 51°12.64 2°49.08 247.4 13.7 244 12.7
2003-09-17 06:46:14 51°12.63 2°49.06 248.2 13.7 245 12.8
2003-09-17 06:46:20 51°12.63 2°49.02 248.7 13.6 245 12.8
2003-09-17 06:46:24 51°12.62 2°49 248.8 13.7 245 12.8
2003-09-17 06:46:30 51°12.61 2°48.97 249 13.7 245 12.8
2003-09-17 06:46:34 51°12.6 2°48.95 249.3 13.6 245 12.8
2003-09-17 06:46:40 51°12.59 2°48.92 249.3 13.6 245 12.7
2003-09-17 06:46:44 51°12.59 2°48.89 248.9 13.6 245 12.9
2003-09-17 06:46:50 51°12.58 2°48.86 248.7 13.6 244 12.8
2003-09-17 06:46:54 51°12.57 2°48.84 248.4 13.6 245 12.9
2003-09-17 06:46:58 51°12.56 2°48.82 248.2 13.6 244 12.9
2003-09-17 06:47:06 51°12.55 2°48.77 248.2 13.6 244 13
2003-09-17 06:47:10 51°12.54 2°48.75 248.2 13.7 245 12.9
2003-09-17 06:47:14 51°12.54 2°48.73 248.4 13.7 245 12.9
2003-09-17 06:47:20 51°12.53 2°48.7 248.4 13.7 244 12.9
2003-09-17 06:47:24 51°12.52 2°48.68 248.3 13.7 244 13.1
2003-09-17 06:47:30 51°12.51 2°48.64 248 13.7 244 12.9
2003-09-17 06:47:34 51°12.5 2°48.62 247.7 13.7 244 13
2003-09-17 06:47:40 51°12.49 2°48.59 247.9 13.7 244 13
2003-09-17 06:47:44 51°12.49 2°48.57 248 13.7 245 12.9
2003-09-17 06:47:50 51°12.48 2°48.53 248.6 13.7 245 12.9
2003-09-17 06:47:54 51°12.47 2°48.51 248.8 13.7 244 13
2003-09-17 06:47:58 51°12.46 2°48.49 248.6 13.7 245 13.2
2003-09-17 06:48:04 51°12.45 2°48.46 248.4 13.7 244 13.1
2003-09-17 06:48:10 51°12.44 2°48.42 248.2 13.8 244 13.3
2003-09-17 06:48:14 51°12.44 2°48.4 248.2 13.8 244 13.3
2003-09-17 06:48:20 51°12.43 2°48.37 248.5 13.7 245 13.1
2003-09-17 06:48:26 51°12.42 2°48.34 248.7 13.7 245 13.2
2003-09-17 06:48:30 51°12.41 2°48.31 248.7 13.7 245 13.1
2003-09-17 06:48:34 51°12.4 2°48.29 248.7 13.7 245 13.1
2003-09-17 06:48:40 51°12.4 2°48.26 248.5 13.7 244 13.1
2003-09-17 06:48:44 51°12.39 2°48.24 248.2 13.7 244 13
2003-09-17 06:48:50 51°12.38 2°48.21 248.2 13.7 244 13.1
2003-09-17 06:48:54 51°12.37 2°48.18 248.2 13.7 244 13.1
2003-09-17 06:49:00 51°12.36 2°48.15 248 13.7 244 13.2
2003-09-17 06:49:04 51°12.36 2°48.13 247.9 13.7 244 13.1
2003-09-17 06:49:10 51°12.35 2°48.1 248.2 13.8 245 13.1
2003-09-17 06:49:14 51°12.34 2°48.07 248.5 13.8 245 13.2
2003-09-17 06:49:20 51°12.33 2°48.04 248.8 13.7 245 13.2
2003-09-17 06:49:24 51°12.32 2°48.02 248.9 13.7 245 13.2
2003-09-17 06:49:30 51°12.31 2°47.99 248.6 13.8 245 13.2
2003-09-17 06:49:34 51°12.31 2°47.96 248.4 13.8 245 13.2
2003-09-17 06:49:40 51°12.3 2°47.93 248.2 13.8 244 13.1
2003-09-17 06:49:44 51°12.29 2°47.91 248.4 13.8 246 13.3
2003-09-17 06:49:50 51°12.28 2°47.88 249.4 13.7 246 13.3
2003-09-17 06:49:54 51°12.27 2°47.85 249.9 13.8 246 13.2
2003-09-17 06:50:00 51°12.27 2°47.82 250.4 13.7 247 13.2
2003-09-17 06:50:04 51°12.26 2°47.8 250.9 13.8 247 13.3
2003-09-17 06:50:10 51°12.25 2°47.76 251 13.7 247 13.3
2003-09-17 06:50:14 51°12.25 2°47.74 251.1 13.8 247 13.4
2003-09-17 06:50:20 51°12.24 2°47.71 251 13.8 247 13.5
2003-09-17 06:50:24 51°12.23 2°47.69 250.7 13.7 247 13.4
2003-09-17 06:50:30 51°12.22 2°47.65 250.3 13.7 246 13.4
2003-09-17 06:50:34 51°12.22 2°47.63 250 13.7 246 13.3
2003-09-17 06:50:38 51°12.21 2°47.61 250 13.7 246 13.4
2003-09-17 06:50:48 51°12.19 2°47.55 250.1 13.7 247 13.5
2003-09-17 06:50:52 51°12.19 2°47.53 250.5 13.6 247 13.3
2003-09-17 06:50:58 51°12.18 2°47.5 250.5 13.7 247 13.4
2003-09-17 06:51:02 51°12.17 2°47.48 250.9 13.7 247 13.5
2003-09-17 06:51:08 51°12.16 2°47.44 251.1 13.7 248 13.5
2003-09-17 06:51:14 51°12.16 2°47.41 251.1 13.7 247 13.4
2003-09-17 06:51:18 51°12.15 2°47.39 251.1 13.7 247 13.4
2003-09-17 06:51:24 51°12.14 2°47.35 251.1 13.6 247 13.4
2003-09-17 06:51:28 51°12.13 2°47.33 250.6 13.6 247 13.5
2003-09-17 06:51:32 51°12.13 2°47.31 250.3 13.7 247 13.5
2003-09-17 06:51:38 51°12.12 2°47.28 250.2 13.7 247 13.6
2003-09-17 06:51:42 51°12.11 2°47.25 250.4 13.6 247 13.5
2003-09-17 06:51:48 51°12.11 2°47.22 250.3 13.6 247 13.5
2003-09-17 06:51:54 51°12.1 2°47.19 250.2 13.6 246 13.5
2003-09-17 06:51:58 51°12.09 2°47.16 250 13.6 246 13.4
2003-09-17 06:52:02 51°12.08 2°47.14 249.7 13.6 246 13.5
2003-09-17 06:52:08 51°12.07 2°47.11 249.8 13.6 247 13.5
2003-09-17 06:52:12 51°12.07 2°47.09 249.9 13.6 246 13.5
2003-09-17 06:52:18 51°12.06 2°47.05 250.1 13.6 247 13.5
2003-09-17 06:52:22 51°12.05 2°47.03 250.4 13.6 247 13.5
2003-09-17 06:52:28 51°12.05 2°47 250.4 13.6 247 13.5
2003-09-17 06:52:34 51°12.04 2°46.97 250.8 13.6 247 13.5
2003-09-17 06:52:38 51°12.03 2°46.94 250.8 13.6 248 13.5
2003-09-17 06:52:42 51°12.02 2°46.92 251.1 13.6 247 13.5
2003-09-17 06:52:48 51°12.02 2°46.89 251.1 13.6 248 13.5
2003-09-17 06:52:52 51°12.01 2°46.87 251.1 13.6 248 13.5
2003-09-17 06:52:58 51°12 2°46.83 251.1 13.6 247 13.5
2003-09-17 06:53:02 51°11.99 2°46.81 250.8 13.6 246 13.5
2003-09-17 06:53:08 51°11.99 2°46.78 250.2 13.6 246 13.6
2003-09-17 06:53:14 51°11.98 2°46.74 249.8 13.6 246 13.5
2003-09-17 06:53:18 51°11.97 2°46.72 249.6 13.6 246 13.6
2003-09-17 06:53:22 51°11.96 2°46.7 250 13.6 247 13.6
2003-09-17 06:53:28 51°11.96 2°46.67 250.1 13.6 246 13.6
2003-09-17 06:53:34 51°11.95 2°46.63 249.7 13.7 246 13.5
2003-09-17 06:53:38 51°11.94 2°46.61 250 13.6 247 13.6
2003-09-17 06:53:42 51°11.93 2°46.59 250.4 13.6 247 13.6
2003-09-17 06:53:48 51°11.93 2°46.56 250.4 13.6 247 13.6
2003-09-17 06:53:52 51°11.92 2°46.54 250.7 13.7 247 13.6
2003-09-17 06:53:58 51°11.91 2°46.5 250.8 13.6 247 13.7
2003-09-17 06:54:02 51°11.9 2°46.48 250.8 13.6 247 13.6
2003-09-17 06:54:08 51°11.9 2°46.45 250.7 13.7 247 13.6
2003-09-17 06:54:14 51°11.89 2°46.41 250.9 13.7 247 13.6
2003-09-17 06:54:18 51°11.88 2°46.39 251 13.7 247 13.5
2003-09-17 06:54:22 51°11.88 2°46.37 251.1 13.7 247 13.5
2003-09-17 06:54:28 51°11.87 2°46.34 251.2 13.7 247 13.6
2003-09-17 06:54:32 51°11.86 2°46.31 251 13.6 246 13.6
2003-09-17 06:54:38 51°11.85 2°46.28 250.4 13.7 246 13.5
2003-09-17 06:54:42 51°11.85 2°46.26 250 13.7 246 13.6
2003-09-17 06:54:48 51°11.84 2°46.23 249.8 13.7 246 13.6
2003-09-17 06:54:54 51°11.83 2°46.19 249.9 13.7 246 13.6
2003-09-17 06:54:58 51°11.82 2°46.17 250.4 13.6 247 13.6
2003-09-17 06:55:02 51°11.82 2°46.15 250.4 13.8 246 13.5
2003-09-17 06:55:08 51°11.81 2°46.11 250.4 13.8 247 13.5
2003-09-17 06:55:14 51°11.8 2°46.08 250.4 13.7 247 13.6
2003-09-17 06:55:18 51°11.79 2°46.06 250.6 13.7 247 13.6
2003-09-17 06:55:22 51°11.79 2°46.04 250.8 13.7 247 13.6
2003-09-17 06:55:28 51°11.78 2°46 250.8 13.6 247 13.6
2003-09-17 06:55:34 51°11.77 2°45.97 250.8 13.7 247 13.6
2003-09-17 06:55:38 51°11.76 2°45.95 250.7 13.7 247 13.5
2003-09-17 06:55:42 51°11.76 2°45.93 250.4 13.7 247 13.6
2003-09-17 06:55:48 51°11.75 2°45.89 250.1 13.7 246 13.6
2003-09-17 06:55:54 51°11.74 2°45.86 249.9 13.7 246 13.6
2003-09-17 06:55:58 51°11.73 2°45.84 249.6 13.7 246 13.6
2003-09-17 06:56:02 51°11.72 2°45.82 249.9 13.7 246 13.5
2003-09-17 06:56:08 51°11.72 2°45.78 250.3 13.7 247 13.5
2003-09-17 06:56:14 51°11.71 2°45.75 250.8 13.7 247 13.5
2003-09-17 06:56:18 51°11.7 2°45.73 250.9 13.7 247 13.5
2003-09-17 06:56:22 51°11.7 2°45.7 251.1 13.7 247 13.5
2003-09-17 06:56:28 51°11.69 2°45.67 251 13.7 247 13.6
2003-09-17 06:56:34 51°11.68 2°45.64 250.6 13.7 246 13.6
2003-09-17 06:56:38 51°11.67 2°45.61 250.1 13.7 246 13.5
2003-09-17 06:56:42 51°11.66 2°45.59 249.8 13.7 246 13.5
2003-09-17 06:56:48 51°11.66 2°45.56 249.8 13.7 246 13.5
2003-09-17 06:56:54 51°11.65 2°45.53 249.7 13.7 246 13.5
2003-09-17 06:56:58 51°11.64 2°45.5 249.4 13.7 246 13.6
2003-09-17 06:57:02 51°11.63 2°45.48 249.5 13.7 246 13.5
2003-09-17 06:57:08 51°11.63 2°45.45 250 13.7 247 13.5
2003-09-17 06:57:14 51°11.62 2°45.42 250.2 13.7 247 13.5
2003-09-17 06:57:18 51°11.61 2°45.39 250.5 13.8 247 13.6
2003-09-17 06:57:22 51°11.6 2°45.37 250.8 13.7 247 13.5
2003-09-17 06:57:28 51°11.6 2°45.34 251.1 13.7 247 13.4
2003-09-17 06:57:34 51°11.59 2°45.3 250.7 13.7 247 13.5
2003-09-17 06:57:38 51°11.58 2°45.28 250.5 13.7 247 13.5
2003-09-17 06:57:42 51°11.57 2°45.26 250.2 13.8 247 13.4
2003-09-17 06:57:48 51°11.57 2°45.23 250.1 13.7 246 13.5
2003-09-17 06:57:54 51°11.56 2°45.19 249.8 13.7 246 13.4
2003-09-17 06:57:58 51°11.55 2°45.17 249.7 13.7 246 13.4
2003-09-17 06:58:02 51°11.54 2°45.15 249.7 13.7 246 13.4
2003-09-17 06:58:08 51°11.53 2°45.12 249.6 13.8 246 13.4
2003-09-17 06:58:14 51°11.53 2°45.08 249.3 13.8 246 13.3
2003-09-17 06:58:18 51°11.52 2°45.06 249.4 13.8 246 13.3
2003-09-17 06:58:22 51°11.51 2°45.04 250.1 13.8 247 13.3
2003-09-17 06:58:28 51°11.5 2°45 250.4 13.8 247 13.3
2003-09-17 06:58:32 51°11.5 2°44.98 250.6 13.8 248 13.3
2003-09-17 06:58:38 51°11.49 2°44.95 251 13.8 247 13.3
2003-09-17 06:58:42 51°11.48 2°44.92 251.1 13.8 248 13.3
2003-09-17 06:58:48 51°11.48 2°44.89 251 13.7 247 13.2
2003-09-17 06:58:54 51°11.47 2°44.86 250.7 13.7 247 13.3
2003-09-17 06:58:58 51°11.46 2°44.84 250.2 13.7 246 13.3
2003-09-17 06:59:02 51°11.45 2°44.81 249.9 13.7 246 13.2
2003-09-17 06:59:08 51°11.44 2°44.78 249.6 13.7 246 13.3
2003-09-17 06:59:14 51°11.44 2°44.75 249.6 13.7 247 13.2
2003-09-17 06:59:18 51°11.43 2°44.72 250.2 13.7 247 13.2
2003-09-17 06:59:22 51°11.42 2°44.7 250.5 13.7 247 13.2
2003-09-17 06:59:28 51°11.41 2°44.67 250.4 13.7 247 13.2
2003-09-17 06:59:34 51°11.41 2°44.64 250.4 13.8 246 13.2
2003-09-17 06:59:38 51°11.4 2°44.61 250.3 13.7 247 13.3
2003-09-17 06:59:42 51°11.39 2°44.59 250 13.7 246 13.2
2003-09-17 06:59:48 51°11.38 2°44.56 249.9 13.8 247 13.3
2003-09-17 06:59:54 51°11.38 2°44.52 250 13.8 247 13.2
2003-09-17 06:59:58 51°11.37 2°44.5 250.2 13.8 247 13.3
2003-09-17 07:00:02 51°11.36 2°44.48 250.6 13.7 247 13.2
2003-09-17 07:00:08 51°11.35 2°44.45 250.8 13.7 248 13.2
2003-09-17 07:00:12 51°11.35 2°44.42 251.1 13.8 247 13.1
2003-09-17 07:00:18 51°11.34 2°44.39 251.1 13.8 248 13.2
2003-09-17 07:00:22 51°11.33 2°44.37 250.9 13.8 247 13.1
2003-09-17 07:00:28 51°11.33 2°44.33 250 13.7 246 13.1
2003-09-17 07:00:34 51°11.32 2°44.3 249.6 13.8 246 13.1
2003-09-17 07:00:38 51°11.31 2°44.28 249.6 13.7 246 13.1
2003-09-17 07:00:42 51°11.3 2°44.26 249.5 13.7 246 13.1
2003-09-17 07:00:48 51°11.29 2°44.22 249.4 13.8 246 13.2
2003-09-17 07:00:52 51°11.29 2°44.2 249.6 13.8 247 13.1
2003-09-17 07:00:58 51°11.28 2°44.17 250.1 13.7 247 13.1
2003-09-17 07:01:02 51°11.27 2°44.14 250.7 13.7 248 13.1
2003-09-17 07:01:08 51°11.26 2°44.11 250.9 13.8 248 13.1
2003-09-17 07:01:12 51°11.26 2°44.09 251.1 13.8 248 13.1
2003-09-17 07:01:18 51°11.25 2°44.05 251.1 13.8 248 13
2003-09-17 07:01:22 51°11.24 2°44.03 251.1 13.8 247 13.2
2003-09-17 07:01:28 51°11.24 2°44 250.4 13.7 246 13.1
2003-09-17 07:01:32 51°11.23 2°43.98 250.1 13.8 247 13.1
2003-09-17 07:01:38 51°11.22 2°43.94 249.8 13.8 246 13.1
2003-09-17 07:01:42 51°11.21 2°43.92 249.8 13.8 247 13.1
2003-09-17 07:01:48 51°11.2 2°43.89 250 13.7 246 13
2003-09-17 07:01:54 51°11.2 2°43.85 250 13.8 247 12.9
2003-09-17 07:01:58 51°11.19 2°43.83 250 13.8 246 13.1
2003-09-17 07:02:02 51°11.18 2°43.81 250 13.8 247 13
2003-09-17 07:02:08 51°11.17 2°43.78 249.8 13.8 246 13
2003-09-17 07:02:14 51°11.17 2°43.74 249.7 13.7 246 13.1
2003-09-17 07:02:18 51°11.16 2°43.72 249.6 13.8 246 12.9
2003-09-17 07:02:22 51°11.15 2°43.7 249.6 13.8 247 12.9
2003-09-17 07:02:28 51°11.14 2°43.66 250.1 13.8 247 13
2003-09-17 07:02:32 51°11.14 2°43.64 250.6 13.8 248 12.9
2003-09-17 07:02:38 51°11.13 2°43.61 251.1 13.7 248 12.8
2003-09-17 07:02:42 51°11.12 2°43.59 251.2 13.8 248 12.9
2003-09-17 07:02:48 51°11.12 2°43.55 251.2 13.8 248 12.8
2003-09-17 07:02:54 51°11.11 2°43.52 251.2 13.8 247 12.9
2003-09-17 07:02:58 51°11.1 2°43.5 250.4 13.7 247 12.9
2003-09-17 07:03:02 51°11.09 2°43.47 250.1 13.8 246 13
2003-09-17 07:03:08 51°11.09 2°43.44 249.7 13.8 246 12.9
2003-09-17 07:03:12 51°11.08 2°43.42 249.7 13.8 246 12.9
2003-09-17 07:03:18 51°11.07 2°43.38 249.3 13.8 245 12.8
2003-09-17 07:03:22 51°11.06 2°43.36 248.3 13.8 245 13
2003-09-17 07:03:28 51°11.05 2°43.33 247.8 13.8 245 13
2003-09-17 07:03:34 51°11.04 2°43.3 247.8 13.8 245 12.9
2003-09-17 07:03:38 51°11.04 2°43.27 247.8 13.8 245 12.9
2003-09-17 07:03:42 51°11.03 2°43.25 248 13.8 245 12.9
2003-09-17 07:03:48 51°11.02 2°43.22 248.2 13.8 245 12.9
2003-09-17 07:03:52 51°11.01 2°43.2 248.2 13.8 245 12.9
2003-09-17 07:03:58 51°11 2°43.16 247.9 13.8 244 12.9
2003-09-17 07:04:02 51°11 2°43.14 247.6 13.8 244 12.9
2003-09-17 07:04:08 51°10.99 2°43.11 247.2 13.8 244 12.9
2003-09-17 07:04:14 51°10.98 2°43.08 246.9 13.8 243 12.8
2003-09-17 07:04:18 51°10.97 2°43.05 246.3 13.8 243 12.8
2003-09-17 07:04:22 51°10.96 2°43.03 246.2 13.9 244 12.8
2003-09-17 07:04:28 51°10.95 2°43 246.4 13.9 244 12.7
2003-09-17 07:04:34 51°10.94 2°42.97 247 13.8 245 12.9
2003-09-17 07:04:38 51°10.94 2°42.94 247.4 13.8 244 12.7
2003-09-17 07:04:42 51°10.93 2°42.92 247.5 13.8 245 12.8
2003-09-17 07:04:48 51°10.92 2°42.89 247.5 13.8 244 12.5
2003-09-17 07:04:54 51°10.91 2°42.86 247.3 13.8 244 12.7
2003-09-17 07:04:58 51°10.9 2°42.83 247.2 13.8 244 12.7
2003-09-17 07:05:02 51°10.9 2°42.81 246.9 13.8 244 12.6
2003-09-17 07:05:08 51°10.89 2°42.78 246.7 13.9 243 12.7
2003-09-17 07:05:14 51°10.88 2°42.75 246.7 13.9 243 12.6
2003-09-17 07:05:18 51°10.87 2°42.73 246.5 13.9 244 12.6
2003-09-17 07:05:22 51°10.86 2°42.7 246.5 13.8 243 12.7
2003-09-17 07:05:28 51°10.85 2°42.67 246.4 13.8 244 12.6
2003-09-17 07:05:34 51°10.84 2°42.64 246.9 13.8 245 12.6
2003-09-17 07:05:38 51°10.84 2°42.62 247.5 13.9 245 12.5
2003-09-17 07:05:42 51°10.83 2°42.59 247.5 13.9 244 12.6
2003-09-17 07:05:48 51°10.82 2°42.56 247.5 13.9 245 12.6
2003-09-17 07:05:54 51°10.81 2°42.53 247.2 13.9 244 12.5
2003-09-17 07:05:58 51°10.8 2°42.51 247.1 13.9 244 12.5
2003-09-17 07:06:02 51°10.8 2°42.48 246.8 13.8 244 12.5
2003-09-17 07:06:08 51°10.79 2°42.45 246.9 13.9 244 12.5
2003-09-17 07:06:14 51°10.78 2°42.42 247.1 13.9 245 12.5
2003-09-17 07:06:18 51°10.77 2°42.4 247.6 13.9 245 12.5
2003-09-17 07:06:22 51°10.76 2°42.37 247.9 13.9 245 12.4
2003-09-17 07:06:28 51°10.75 2°42.34 248 13.9 245 12.4
2003-09-17 07:06:32 51°10.75 2°42.32 247.9 13.8 245 12.4
2003-09-17 07:06:38 51°10.74 2°42.28 247.4 13.9 244 12.4
2003-09-17 07:06:42 51°10.73 2°42.26 246.8 13.9 244 12.4
2003-09-17 07:06:48 51°10.72 2°42.23 246.7 13.9 244 12.3
2003-09-17 07:06:52 51°10.71 2°42.21 247 13.9 244 12.4
2003-09-17 07:06:58 51°10.7 2°42.17 247.2 13.8 244 12.4
2003-09-17 07:07:02 51°10.69 2°42.15 247.2 13.9 244 12.3
2003-09-17 07:07:08 51°10.68 2°42.12 247.1 13.9 244 12.3
2003-09-17 07:07:12 51°10.68 2°42.1 247.2 13.9 244 12.3
2003-09-17 07:07:18 51°10.67 2°42.06 247.3 13.9 244 12.3
2003-09-17 07:07:22 51°10.66 2°42.04 247.3 13.9 245 12.3
2003-09-17 07:07:28 51°10.65 2°42.01 247.5 13.8 245 12.2
2003-09-17 07:07:34 51°10.64 2°41.97 247.7 13.9 245 12.4
2003-09-17 07:07:38 51°10.64 2°41.95 247.8 13.9 245 12.3
2003-09-17 07:07:42 51°10.63 2°41.93 248.2 13.9 246 12.3
2003-09-17 07:07:48 51°10.62 2°41.9 248.2 13.9 245 12.2
2003-09-17 07:07:54 51°10.61 2°41.86 247.5 13.8 244 12.2
2003-09-17 07:07:58 51°10.6 2°41.84 247.1 13.8 244 12.2
2003-09-17 07:08:02 51°10.6 2°41.82 246.7 13.9 243 12.1
2003-09-17 07:08:08 51°10.59 2°41.79 246.7 13.9 244 12.1
2003-09-17 07:08:14 51°10.58 2°41.75 247 13.8 244 12.2
2003-09-17 07:08:18 51°10.57 2°41.73 247.1 13.8 245 12.2
2003-09-17 07:08:22 51°10.56 2°41.71 247.3 13.8 244 12.1
2003-09-17 07:08:28 51°10.55 2°41.68 247.5 13.8 245 12.2
2003-09-17 07:08:34 51°10.54 2°41.64 248 13.8 245 12.2
2003-09-17 07:08:38 51°10.54 2°41.62 248 13.8 245 12.1
2003-09-17 07:08:42 51°10.53 2°41.6 247.5 13.8 244 12.1
2003-09-17 07:08:48 51°10.52 2°41.57 247.2 13.7 244 12.1
2003-09-17 07:08:54 51°10.51 2°41.53 246.9 13.8 244 12
2003-09-17 07:08:58 51°10.5 2°41.51 246.9 13.7 245 12.1
2003-09-17 07:09:02 51°10.5 2°41.49 247.2 13.8 244 12.1
2003-09-17 07:09:08 51°10.49 2°41.46 247.3 13.8 245 12
2003-09-17 07:09:14 51°10.48 2°41.42 247.5 13.7 245 12
2003-09-17 07:09:18 51°10.47 2°41.4 247.6 13.7 245 12.1
2003-09-17 07:09:22 51°10.46 2°41.38 247.6 13.7 245 12.1
2003-09-17 07:09:28 51°10.46 2°41.35 247.5 13.7 244 11.9
2003-09-17 07:09:34 51°10.45 2°41.31 246.9 13.8 244 12
2003-09-17 07:09:38 51°10.44 2°41.29 246.8 13.8 244 12
2003-09-17 07:09:42 51°10.43 2°41.27 247 13.7 245 12
2003-09-17 07:09:48 51°10.42 2°41.24 247.3 13.7 245 12
2003-09-17 07:09:54 51°10.41 2°41.2 247.6 13.8 246 12
2003-09-17 07:09:58 51°10.41 2°41.18 247.9 13.8 245 12
2003-09-17 07:10:02 51°10.4 2°41.16 248.1 13.8 246 12
2003-09-17 07:10:08 51°10.39 2°41.13 247.9 13.8 245 12
2003-09-17 07:10:14 51°10.38 2°41.09 247.7 13.8 245 11.9
2003-09-17 07:10:18 51°10.37 2°41.07 247.6 13.8 245 11.9
2003-09-17 07:10:22 51°10.37 2°41.05 247.2 13.8 244 11.8
2003-09-17 07:10:28 51°10.36 2°41.02 247 13.8 245 12
2003-09-17 07:10:34 51°10.35 2°40.98 247.1 13.8 245 11.8
2003-09-17 07:10:38 51°10.34 2°40.96 247.5 13.8 245 11.9
2003-09-17 07:10:42 51°10.34 2°40.94 247.6 13.8 245 11.8
2003-09-17 07:10:48 51°10.33 2°40.91 247.3 13.9 245 11.9
2003-09-17 07:10:54 51°10.32 2°40.87 247.4 13.8 245 11.9
2003-09-17 07:10:58 51°10.31 2°40.85 247.4 13.8 245 11.8
2003-09-17 07:11:02 51°10.3 2°40.83 247.4 13.8 245 12
2003-09-17 07:11:08 51°10.29 2°40.8 247.1 13.9 245 11.8
2003-09-17 07:11:12 51°10.29 2°40.77 246.9 13.9 244 11.9
2003-09-17 07:11:18 51°10.28 2°40.74 246.6 13.9 244 11.8
2003-09-17 07:11:22 51°10.27 2°40.72 246.4 13.9 244 11.8
2003-09-17 07:11:28 51°10.26 2°40.69 246.4 14 244 11.9
2003-09-17 07:11:32 51°10.25 2°40.66 246.5 13.9 245 11.8
2003-09-17 07:11:38 51°10.24 2°40.63 246.5 13.9 244 11.9
2003-09-17 07:11:42 51°10.24 2°40.61 246.8 14 245 11.8
2003-09-17 07:11:48 51°10.23 2°40.57 247.3 13.9 245 11.8
2003-09-17 07:11:52 51°10.22 2°40.55 247.7 13.9 245 11.7
2003-09-17 07:11:58 51°10.21 2°40.52 247.5 13.9 245 11.7
2003-09-17 07:12:02 51°10.2 2°40.5 247.5 14 245 11.7
2003-09-17 07:12:08 51°10.19 2°40.46 247.4 14 245 11.7
2003-09-17 07:12:14 51°10.18 2°40.43 247.3 14 245 11.8
2003-09-17 07:12:18 51°10.18 2°40.41 247.3 14 244 11.7
2003-09-17 07:12:22 51°10.17 2°40.38 246.6 14 244 11.7
2003-09-17 07:12:28 51°10.16 2°40.35 246.4 14 244 11.7
2003-09-17 07:12:34 51°10.15 2°40.32 246.5 14 244 11.7
2003-09-17 07:12:38 51°10.14 2°40.3 245.5 14 242 11.6
2003-09-17 07:12:42 51°10.14 2°40.27 244.5 14 242 11.6
2003-09-17 07:12:48 51°10.13 2°40.24 243.6 14 241 11.6
2003-09-17 07:12:54 51°10.11 2°40.21 243 14 241 11.7
2003-09-17 07:12:58 51°10.11 2°40.19 242.3 14 239 11.6
2003-09-17 07:13:02 51°10.1 2°40.17 240.8 14 238 11.6
2003-09-17 07:13:08 51°10.09 2°40.14 239.7 14 238 11.6
2003-09-17 07:13:14 51°10.07 2°40.11 238.9 14 237 11.5
2003-09-17 07:13:18 51°10.06 2°40.08 238.5 14 237 11.5
2003-09-17 07:13:22 51°10.06 2°40.06 238 14 237 11.5
2003-09-17 07:13:28 51°10.04 2°40.03 237.9 14 236 11.4
2003-09-17 07:13:32 51°10.03 2°40.01 237.7 14.1 237 11.3
2003-09-17 07:13:38 51°10.02 2°39.98 238.7 14 237 11.4
2003-09-17 07:13:42 51°10.01 2°39.96 239.1 14.1 238 11.3
2003-09-17 07:13:48 51°10 2°39.93 239.6 14.1 238 11.3
2003-09-17 07:13:54 51°9.99 2°39.9 240.3 14.1 239 11.3
2003-09-17 07:13:58 51°9.98 2°39.88 240.6 14 238 11.2
2003-09-17 07:14:02 51°9.97 2°39.85 240.6 14.1 240 11.3
2003-09-17 07:14:08 51°9.96 2°39.82 241.4 14 239 11.2
2003-09-17 07:14:14 51°9.95 2°39.79 241.3 14 239 11.2
2003-09-17 07:14:18 51°9.94 2°39.77 240.9 14.1 238 11.2
2003-09-17 07:14:22 51°9.93 2°39.75 240.2 14.1 238 11.2
2003-09-17 07:14:28 51°9.92 2°39.72 239.7 14 237 11.2
2003-09-17 07:14:34 51°9.91 2°39.68 239.2 14.1 238 11.1
2003-09-17 07:14:38 51°9.9 2°39.66 239.1 14.1 238 11.1
2003-09-17 07:14:42 51°9.89 2°39.64 240.4 14.1 240 11.1
2003-09-17 07:14:48 51°9.88 2°39.61 241.5 14.1 240 11
2003-09-17 07:14:52 51°9.87 2°39.59 242.4 14.1 241 11.1
2003-09-17 07:14:58 51°9.86 2°39.56 243.1 14 241 11
2003-09-17 07:15:02 51°9.85 2°39.53 243.1 14.1 241 11.1
2003-09-17 07:15:08 51°9.84 2°39.5 242.7 14.1 240 11.1
2003-09-17 07:15:14 51°9.83 2°39.47 242.3 14 240 11
2003-09-17 07:15:18 51°9.82 2°39.45 241.9 14.1 240 11.1
2003-09-17 07:15:22 51°9.81 2°39.43 242 14.1 240 11.1
2003-09-17 07:15:28 51°9.8 2°39.39 242.6 14.1 241 11
2003-09-17 07:15:32 51°9.79 2°39.37 243 14.1 241 10.9
2003-09-17 07:15:38 51°9.78 2°39.34 243.1 14.1 241 11
2003-09-17 07:15:42 51°9.78 2°39.32 243.2 14.1 240 11
2003-09-17 07:15:48 51°9.76 2°39.29 242.7 14 240 11.1
2003-09-17 07:15:52 51°9.76 2°39.27 242 14.1 239 11
2003-09-17 07:15:58 51°9.75 2°39.23 241.6 14.1 240 10.9
2003-09-17 07:16:02 51°9.74 2°39.21 241.6 14.1 239 11
2003-09-17 07:16:08 51°9.73 2°39.18 242 14.1 240 10.9
2003-09-17 07:16:14 51°9.71 2°39.15 242.8 14.1 241 10.9
2003-09-17 07:16:18 51°9.71 2°39.13 243.4 14.1 241 11
2003-09-17 07:16:22 51°9.7 2°39.1 243.6 14.1 241 11
2003-09-17 07:16:28 51°9.69 2°39.07 243.4 14.1 240 11
2003-09-17 07:16:32 51°9.68 2°39.05 242.6 14.1 241 11
2003-09-17 07:16:38 51°9.67 2°39.02 242.4 14.1 240 11
2003-09-17 07:16:42 51°9.66 2°39 242.2 14.1 241 10.9
2003-09-17 07:16:48 51°9.65 2°38.96 242.2 14.1 240 11
2003-09-17 07:16:54 51°9.64 2°38.93 242.3 14.2 241 11
2003-09-17 07:16:58 51°9.63 2°38.91 242.7 14.1 241 10.9
2003-09-17 07:17:02 51°9.62 2°38.89 242.9 14.1 241 11
2003-09-17 07:17:08 51°9.61 2°38.86 242.6 14.1 240 11
2003-09-17 07:17:14 51°9.6 2°38.82 241.8 14.2 240 11.1
2003-09-17 07:17:18 51°9.59 2°38.8 241.5 14.2 240 11.1
2003-09-17 07:17:22 51°9.58 2°38.78 241.6 14.1 240 11
2003-09-17 07:17:28 51°9.57 2°38.75 241.9 14.1 240 11
2003-09-17 07:17:34 51°9.56 2°38.71 242.5 14.2 241 11
2003-09-17 07:17:38 51°9.55 2°38.69 243.1 14.1 241 11
2003-09-17 07:17:42 51°9.55 2°38.67 243.3 14.1 241 11.1
2003-09-17 07:17:48 51°9.53 2°38.64 243 14.1 241 11
2003-09-17 07:17:54 51°9.52 2°38.6 242.4 14.1 240 11
2003-09-17 07:17:58 51°9.51 2°38.58 241.6 14.1 240 11
2003-09-17 07:18:02 51°9.51 2°38.56 241.6 14.1 240 11
2003-09-17 07:18:08 51°9.49 2°38.53 241.7 14.2 241 10.9
2003-09-17 07:18:12 51°9.49 2°38.51 242.2 14.2 241 10.9
2003-09-17 07:18:18 51°9.47 2°38.47 242.9 14.1 241 10.9
2003-09-17 07:18:22 51°9.47 2°38.45 242.9 14.1 240 10.9
2003-09-17 07:18:28 51°9.46 2°38.42 242.4 14.1 241 10.9
2003-09-17 07:18:34 51°9.44 2°38.39 241.8 14.1 240 10.9
2003-09-17 07:18:38 51°9.44 2°38.37 241.4 14.2 240 10.9
2003-09-17 07:18:44 51°9.42 2°38.33 241.4 14.2 240 11
2003-09-17 07:18:48 51°9.42 2°38.31 242.1 14.1 241 10.8
2003-09-17 07:18:54 51°9.41 2°38.28 242.6 14.1 241 10.8
2003-09-17 07:18:58 51°9.4 2°38.26 242.8 14.2 241 10.8
2003-09-17 07:19:02 51°9.39 2°38.24 242.8 14.2 241 10.8
2003-09-17 07:19:08 51°9.38 2°38.2 242.8 14.2 241 10.8
2003-09-17 07:19:14 51°9.37 2°38.17 242.4 14.1 241 10.8
2003-09-17 07:19:18 51°9.36 2°38.15 242.3 14.1 240 10.8
2003-09-17 07:19:22 51°9.35 2°38.13 241.9 14.2 240 10.7
2003-09-17 07:19:28 51°9.34 2°38.09 241.7 14.2 240 10.6
2003-09-17 07:19:34 51°9.33 2°38.06 241.7 14.2 241 10.7
2003-09-17 07:19:38 51°9.32 2°38.04 242.2 14.2 241 10.6
2003-09-17 07:19:42 51°9.31 2°38.02 242.5 14.1 241 10.6
2003-09-17 07:19:48 51°9.3 2°37.99 242.8 14.1 241 10.7
2003-09-17 07:19:54 51°9.29 2°37.95 242.6 14.2 241 10.5
2003-09-17 07:19:58 51°9.28 2°37.93 242.5 14.2 241 10.5
2003-09-17 07:20:02 51°9.27 2°37.91 242.5 14.1 241 10.5
2003-09-17 07:20:08 51°9.26 2°37.88 242.3 14.1 241 10.5
2003-09-17 07:20:14 51°9.25 2°37.84 242.2 14.2 240 10.4
2003-09-17 07:20:18 51°9.24 2°37.82 242.1 14.1 240 10.5
2003-09-17 07:20:22 51°9.24 2°37.8 241.9 14.1 240 10.4
2003-09-17 07:20:28 51°9.22 2°37.77 241.7 14.1 240 10.3
2003-09-17 07:20:32 51°9.22 2°37.75 241.7 14.1 240 10.4
2003-09-17 07:20:38 51°9.2 2°37.71 241.8 14.2 241 10.3
2003-09-17 07:20:42 51°9.2 2°37.69 242.4 14.2 241 10.3
2003-09-17 07:20:48 51°9.19 2°37.66 242.9 13.9 241 10.2
2003-09-17 07:20:54 51°9.18 2°37.63 243 12.8 242 10.2
2003-09-17 07:20:58 51°9.17 2°37.61 243.4 12.4 242 10.2
2003-09-17 07:21:02 51°9.16 2°37.59 244.1 11.7 244 10.2
2003-09-17 07:21:08 51°9.16 2°37.56 245.5 11 245 10.2
2003-09-17 07:21:14 51°9.15 2°37.54 247.6 10.2 249 10.3
2003-09-17 07:21:18 51°9.15 2°37.52 250.7 9.7 251 10.4
2003-09-17 07:21:22 51°9.14 2°37.51 253.6 9.2 253 10.4
2003-09-17 07:21:28 51°9.14 2°37.49 257.7 8.6 256 10.4
2003-09-17 07:21:34 51°9.14 2°37.46 260.5 7.9 261 10.4
2003-09-17 07:21:38 51°9.14 2°37.45 264.1 7.6 263 10.4
2003-09-17 07:21:42 51°9.14 2°37.44 267.5 7.3 265 10.5
2003-09-17 07:21:48 51°9.14 2°37.42 271.6 6.8 269 10.5
2003-09-17 07:21:54 51°9.14 2°37.4 274.7 6.4 272 10.5
2003-09-17 07:21:58 51°9.14 2°37.39 277.2 6.2 275 10.4
2003-09-17 07:22:08 51°9.14 2°37.37 282.4 5.6 278 10.6
2003-09-17 07:22:14 51°9.14 2°37.35 284.5 5.4 280 10.6
2003-09-17 07:22:18 51°9.14 2°37.34 286.2 5.2 281 10.7
2003-09-17 07:22:22 51°9.14 2°37.34 287.7 5.1 282 10.6
2003-09-17 07:22:28 51°9.15 2°37.32 289.4 4.9 284 10.7
2003-09-17 07:22:34 51°9.15 2°37.31 290.9 4.6 285 10.7
2003-09-17 07:22:38 51°9.15 2°37.3 292.3 4.5 286 10.7
2003-09-17 07:22:42 51°9.15 2°37.3 293.6 4.4 287 10.8
2003-09-17 07:22:48 51°9.15 2°37.29 295 4.3 288 10.7
2003-09-17 07:22:54 51°9.16 2°37.28 296 4.1 290 10.8
2003-09-17 07:22:58 51°9.16 2°37.27 297.2 3.9 289 10.8
2003-09-17 07:23:02 51°9.16 2°37.26 298.5 3.7 290 10.8
2003-09-17 07:23:08 51°9.16 2°37.26 299.9 3.1 290 10.8
2003-09-17 07:23:14 51°9.16 2°37.25 299.9 2.2 288 10.7
2003-09-17 07:23:18 51°9.16 2°37.25 298.2 1.6 285 10.8
2003-09-17 07:23:22 51°9.16 2°37.24 297 1.1 284 10.8
2003-09-17 07:23:28 51°9.16 2°37.24 295.7 0.4 266 10.8
2003-09-17 07:23:32 51°9.16 2°37.24 295 0.2 253 10.9
2003-09-17 07:23:38 51°9.16 2°37.24 294.6 0.2 249 10.9
2003-09-17 07:23:42 51°9.16 2°37.24 294.6 0.2 262 10.9
2003-09-17 07:23:48 51°9.16 2°37.24 294.9 0.3 248 10.9
2003-09-17 07:23:54 51°9.16 2°37.24 295.3 0.4 248 10.8
2003-09-17 07:23:58 51°9.16 2°37.24 295.5 0.4 257 10.8
2003-09-17 07:24:04 51°9.16 2°37.24 295.7 0.4 251 -999
2003-09-17 07:24:08 51°9.16 2°37.24 296 0.4 255 -999
2003-09-17 07:24:14 51°9.16 2°37.24 296.4 0.4 260 10.9
2003-09-17 07:24:18 51°9.16 2°37.24 296.5 0.5 260 -999
2003-09-17 07:24:24 51°9.16 2°37.24 296.6 0.5 264 -999
2003-09-17 07:24:28 51°9.16 2°37.23 296.7 0.5 265 -999
2003-09-17 07:24:34 51°9.16 2°37.23 296.7 0.5 266 -999
2003-09-17 07:24:38 51°9.16 2°37.23 296.6 0.5 269 -999
2003-09-17 07:24:44 51°9.16 2°37.23 296.5 0.5 266 -999
2003-09-17 07:24:48 51°9.16 2°37.23 296.3 0.5 271 -999
2003-09-17 07:24:54 51°9.16 2°37.23 296.1 0.6 270 -999
2003-09-17 07:24:58 51°9.16 2°37.23 295.7 0.6 275 -999
2003-09-17 07:25:04 51°9.16 2°37.23 295.3 0.6 275 -999
2003-09-17 07:25:10 51°9.16 2°37.22 294.8 0.6 280 -999
2003-09-17 07:25:14 51°9.16 2°37.22 294.2 0.6 274 10.8
2003-09-17 07:25:18 51°9.16 2°37.22 293.9 0.7 277 -999
2003-09-17 07:25:24 51°9.16 2°37.22 293.3 0.7 277 10.8
2003-09-17 07:25:28 51°9.16 2°37.22 292.7 0.7 281 -999
2003-09-17 07:25:34 51°9.16 2°37.22 292 0.7 278 -999
2003-09-17 07:25:38 51°9.16 2°37.22 291.3 0.8 285 -999
2003-09-17 07:25:44 51°9.16 2°37.21 290.8 0.8 283 -999
2003-09-17 07:25:48 51°9.16 2°37.21 290.2 0.8 285 -999
2003-09-17 07:25:54 51°9.16 2°37.21 289.7 0.8 283 -999
2003-09-17 07:25:58 51°9.16 2°37.21 288.9 0.8 280 -999
2003-09-17 07:26:02 51°9.16 2°37.21 288.4 0.8 286 10.9
2003-09-17 07:26:08 51°9.16 2°37.2 287.7 0.8 279 10.9
2003-09-17 07:26:14 51°9.16 2°37.2 287.4 0.8 289 10.9
2003-09-17 07:26:18 51°9.16 2°37.2 286.8 0.9 280 10.9
2003-09-17 07:26:24 51°9.16 2°37.2 286.3 0.9 287 97
2003-09-17 07:26:28 51°9.16 2°37.2 285.9 0.9 282 10.9
2003-09-17 07:26:34 51°9.16 2°37.2 285.5 0.9 284 11
2003-09-17 07:26:38 51°9.17 2°37.19 285 0.9 282 10.9
2003-09-17 07:26:42 51°9.17 2°37.19 284.6 0.9 285 11
2003-09-17 07:26:48 51°9.17 2°37.19 284.2 0.9 281 11
2003-09-17 07:26:54 51°9.17 2°37.19 284 0.9 287 11
2003-09-17 07:26:58 51°9.17 2°37.19 283.7 0.9 281 11
2003-09-17 07:27:02 51°9.17 2°37.18 283.5 0.9 286 11
2003-09-17 07:27:08 51°9.17 2°37.18 283.3 0.9 282 11
2003-09-17 07:27:14 51°9.17 2°37.18 283 0.9 285 11
2003-09-17 07:27:18 51°9.17 2°37.18 282.9 0.9 282 10.9
2003-09-17 07:27:22 51°9.17 2°37.18 282.6 0.9 283 11
2003-09-17 07:27:28 51°9.17 2°37.17 282.4 0.9 283 11
2003-09-17 07:27:32 51°9.17 2°37.17 282.3 0.9 285 11
2003-09-17 07:27:38 51°9.17 2°37.17 282.1 0.9 284 10.8
2003-09-17 07:27:42 51°9.17 2°37.17 281.8 0.9 282 11
2003-09-17 07:27:48 51°9.17 2°37.17 281.6 0.9 284 11.1
2003-09-17 07:27:54 51°9.17 2°37.16 281.2 0.9 285 11.1
2003-09-17 07:27:58 51°9.17 2°37.16 280.8 0.9 283 11.1
2003-09-17 07:28:02 51°9.17 2°37.16 280.4 1 286 11.1
2003-09-17 07:28:08 51°9.17 2°37.16 280.1 0.9 282 11.1
2003-09-17 07:28:12 51°9.17 2°37.16 279.6 0.9 285 11.1
2003-09-17 07:28:18 51°9.17 2°37.15 279.2 1 281 11.1
2003-09-17 07:28:26 51°9.17 2°37.15 278.2 1 282 11.1
2003-09-17 07:28:32 51°9.17 2°37.15 277.5 1 284 11.1
2003-09-17 07:28:36 51°9.17 2°37.15 277.1 1.3 277 11.1
2003-09-17 07:28:42 51°9.17 2°37.14 275.7 1.6 277 11.1
2003-09-17 07:28:46 51°9.17 2°37.14 272.3 1.9 269 11.1
2003-09-17 07:28:52 51°9.17 2°37.13 267.6 2.2 267 11.1
2003-09-17 07:28:56 51°9.17 2°37.13 262 2.4 259 11.1
2003-09-17 07:29:02 51°9.17 2°37.12 256.2 2.6 256 11.1
2003-09-17 07:29:06 51°9.17 2°37.12 250.3 2.8 251 11
2003-09-17 07:29:12 51°9.17 2°37.11 244.2 2.9 245 11.1
2003-09-17 07:29:18 51°9.16 2°37.11 238.2 3 238 11.1
2003-09-17 07:29:22 51°9.16 2°37.1 232.1 3.1 235 11.1
2003-09-17 07:29:26 51°9.16 2°37.1 225.9 3.2 230 11.1
2003-09-17 07:29:32 51°9.16 2°37.09 219.9 3.3 222 11
2003-09-17 07:29:36 51°9.15 2°37.09 213.6 3.4 216 10.9
2003-09-17 07:29:42 51°9.15 2°37.08 207.5 3.4 211 11
2003-09-17 07:29:46 51°9.14 2°37.08 201.5 3.4 206 10.9
2003-09-17 07:29:52 51°9.14 2°37.08 195.3 3.5 199 10.9
2003-09-17 07:29:58 51°9.13 2°37.08 189.1 3.5 192 10.8
2003-09-17 07:30:02 51°9.13 2°37.07 182.9 3.4 187 10.7
2003-09-17 07:30:06 51°9.13 2°37.07 176.8 3.4 182 10.7
2003-09-17 07:30:12 51°9.12 2°37.07 170.5 3.4 175 10.7
2003-09-17 07:30:18 51°9.12 2°37.08 164.2 3.4 166 10.6
2003-09-17 07:30:22 51°9.11 2°37.08 157.8 3.3 161 10.5
2003-09-17 07:30:26 51°9.11 2°37.08 151.5 3.3 155 10.5
2003-09-17 07:30:32 51°9.1 2°37.09 145 3.2 147 10.5
2003-09-17 07:30:38 51°9.1 2°37.09 138.6 3.2 138 10.5
2003-09-17 07:30:46 51°9.1 2°37.1 125.7 3.2 126 10.2
2003-09-17 07:30:52 51°9.09 2°37.11 119.3 3.1 117 10.4
2003-09-17 07:30:58 51°9.09 2°37.12 112.9 3.1 108 10.3
2003-09-17 07:31:02 51°9.09 2°37.12 106.4 3.1 101 10.3
2003-09-17 07:31:06 51°9.09 2°37.13 100 3.1 97 10.2
2003-09-17 07:31:12 51°9.09 2°37.13 93.5 3 87 10.3
2003-09-17 07:31:18 51°9.09 2°37.14 87.5 2.8 78 10.2
2003-09-17 07:31:22 51°9.09 2°37.15 82.7 2.6 76 10.2
2003-09-17 07:31:26 51°9.09 2°37.15 78.8 2.5 71 10.2
2003-09-17 07:31:32 51°9.1 2°37.16 75.3 2.4 67 10.3
2003-09-17 07:31:38 51°9.1 2°37.16 71.8 2.3 63 10.4
2003-09-17 07:31:42 51°9.1 2°37.16 68.6 2.2 60 10.4
2003-09-17 07:31:46 51°9.1 2°37.17 65.6 2.1 55 10.3
2003-09-17 07:31:52 51°9.1 2°37.17 63.5 1.8 51 10.4
2003-09-17 07:31:56 51°9.1 2°37.17 63.1 1.3 48 10.4
2003-09-17 07:32:02 51°9.1 2°37.18 64.5 1.1 48 10.3
2003-09-17 07:32:06 51°9.11 2°37.18 66.4 0.9 44 10.4
2003-09-17 07:32:12 51°9.11 2°37.18 68.7 0.8 50 10.4
2003-09-17 07:32:18 51°9.11 2°37.18 70.8 0.8 44 10.4
2003-09-17 07:32:28 51°9.11 2°37.18 74.1 0.7 44 10.4
2003-09-17 07:32:32 51°9.11 2°37.18 75.1 0.6 50 10.4
2003-09-17 07:32:38 51°9.11 2°37.18 76.1 0.7 45 10.4
2003-09-17 07:32:42 51°9.11 2°37.18 76.8 0.6 53 10.5
2003-09-17 07:32:46 51°9.11 2°37.19 77.6 0.6 48 10.4
2003-09-17 07:32:54 51°9.11 2°37.19 78.3 0.6 56 10.4
2003-09-17 07:32:58 51°9.11 2°37.19 78.9 0.6 46 10.4
2003-09-17 07:33:02 51°9.11 2°37.19 79.4 0.5 57 10.4
2003-09-17 07:33:08 51°9.11 2°37.19 80 0.5 49 10.3
2003-09-17 07:33:14 51°9.11 2°37.19 80.5 0.5 55 10.4
2003-09-17 07:33:18 51°9.11 2°37.19 80.9 0.5 56 10.4
2003-09-17 07:33:22 51°9.11 2°37.19 81.2 0.5 53 10.4
2003-09-17 07:33:28 51°9.11 2°37.19 81.6 0.5 48 10.4
2003-09-17 07:33:32 51°9.11 2°37.19 82 0.4 60 10.3
2003-09-17 07:33:38 51°9.12 2°37.19 82.5 0.4 50 10.4
2003-09-17 07:33:42 51°9.12 2°37.2 82.7 0.4 54 10.4
2003-09-17 07:33:48 51°9.12 2°37.2 82.9 0.4 53 10.4
2003-09-17 07:33:52 51°9.12 2°37.2 83.1 0.4 56 10.4
2003-09-17 07:33:58 51°9.12 2°37.2 83.4 0.4 49 10.3
2003-09-17 07:34:08 51°9.12 2°37.2 83.8 0.3 51 10.4
2003-09-17 07:34:12 51°9.12 2°37.2 83.9 0.3 55 10.5
2003-09-17 07:34:18 51°9.12 2°37.2 84 0.3 49 10.4
2003-09-17 07:34:22 51°9.12 2°37.2 84.1 0.3 59 10.4
2003-09-17 07:34:28 51°9.12 2°37.2 84.1 0.3 46 10.5
2003-09-17 07:34:34 51°9.12 2°37.2 84.2 0.3 40 10.5
2003-09-17 07:34:38 51°9.12 2°37.2 84.3 0.2 51 10.4
2003-09-17 07:34:44 51°9.12 2°37.2 84.4 0.2 43 10.5
2003-09-17 07:34:48 51°9.12 2°37.2 84.5 0.3 43 10.5
2003-09-17 07:34:54 51°9.12 2°37.2 84.6 0.2 40 10.5
2003-09-17 07:34:58 51°9.12 2°37.2 84.7 0.2 56 10.5
2003-09-17 07:35:02 51°9.12 2°37.2 84.7 0.2 38 10.5
2003-09-17 07:35:08 51°9.12 2°37.2 84.8 0.2 38 10.5
2003-09-17 07:35:12 51°9.12 2°37.2 84.9 0.2 31 10.5
2003-09-17 07:35:18 51°9.12 2°37.2 84.9 0.2 42 10.5
2003-09-17 07:35:22 51°9.12 2°37.2 85.1 0.2 32 10.5
2003-09-17 07:35:28 51°9.12 2°37.2 85.2 0.2 29 10.5
2003-09-17 07:35:34 51°9.12 2°37.2 85.4 0.2 38 10.4
2003-09-17 07:35:38 51°9.12 2°37.2 85.5 0.2 35 10.5
2003-09-17 07:35:42 51°9.12 2°37.2 85.6 0.2 15 10.4
2003-09-17 07:35:48 51°9.12 2°37.21 85.9 0.1 38 10.4
2003-09-17 07:35:54 51°9.12 2°37.21 86.1 0.1 18 10.4
2003-09-17 07:35:58 51°9.12 2°37.21 86.2 0.1 22 10.4
2003-09-17 07:36:02 51°9.12 2°37.21 86.3 0.1 16 10.4
2003-09-17 07:36:08 51°9.12 2°37.21 86.4 0.1 15 10.4
2003-09-17 07:36:12 51°9.12 2°37.21 86.5 0.1 28 10.4
2003-09-17 07:36:18 51°9.12 2°37.21 86.6 0.1 3 10.4
2003-09-17 07:36:22 51°9.12 2°37.21 86.7 0.1 358 10.4
2003-09-17 07:36:28 51°9.12 2°37.21 86.8 0.1 9 10.5
2003-09-17 07:36:34 51°9.12 2°37.21 86.8 0.1 348 10.4
2003-09-17 07:36:38 51°9.12 2°37.21 86.8 0.1 351 10.5
2003-09-17 07:36:42 51°9.12 2°37.21 87 0.1 1 10.4
2003-09-17 07:36:48 51°9.12 2°37.21 87 0.1 335 10.3
2003-09-17 07:36:54 51°9.12 2°37.21 87 0.1 301 10.4
2003-09-17 07:36:58 51°9.12 2°37.21 87 0.1 334 10.4
2003-09-17 07:37:02 51°9.12 2°37.21 87 0.1 336 10.4
2003-09-17 07:37:08 51°9.13 2°37.21 87.1 0.1 330 10.4
2003-09-17 07:37:14 51°9.13 2°37.21 87.3 0.2 336 10.3
2003-09-17 07:37:18 51°9.13 2°37.21 87.4 0.1 334 10.4
2003-09-17 07:37:22 51°9.13 2°37.21 87.4 0.1 326 10.4
2003-09-17 07:37:28 51°9.13 2°37.21 87.5 0.1 295 10.4
2003-09-17 07:37:32 51°9.13 2°37.21 87.6 0.1 329 10.5
2003-09-17 07:37:38 51°9.13 2°37.21 87.7 0.1 273 10.4
2003-09-17 07:37:42 51°9.13 2°37.21 87.8 0.1 337 10.4
2003-09-17 07:37:48 51°9.13 2°37.21 87.9 0.1 312 10.4
2003-09-17 07:37:54 51°9.13 2°37.21 87.9 0.1 317 10.4
2003-09-17 07:37:58 51°9.13 2°37.2 88 0.1 301 10.4
2003-09-17 07:38:02 51°9.13 2°37.2 88.1 0.1 331 10.4
2003-09-17 07:38:08 51°9.13 2°37.2 88.2 0.1 294 10.4
2003-09-17 07:38:14 51°9.13 2°37.2 88.2 0.2 312 10.5
2003-09-17 07:38:18 51°9.13 2°37.2 88.3 0.1 272 10.4
2003-09-17 07:38:24 51°9.13 2°37.2 88.4 0.2 296 10.2
2003-09-17 07:38:28 51°9.13 2°37.2 88.4 0.1 263 10.4
2003-09-17 07:38:32 51°9.13 2°37.2 88.5 0.2 312 10.4
2003-09-17 07:38:38 51°9.13 2°37.2 88.5 0.1 296 10.4
2003-09-17 07:38:42 51°9.13 2°37.2 88.5 0.2 321 10.4
2003-09-17 07:38:48 51°9.13 2°37.2 88.5 0.1 290 10.4
2003-09-17 07:38:54 51°9.13 2°37.2 88.5 0.1 303 10.4
2003-09-17 07:38:58 51°9.13 2°37.2 88.5 0.1 295 10.5
2003-09-17 07:39:04 51°9.13 2°37.2 88.5 0.1 292 10.4
2003-09-17 07:39:08 51°9.13 2°37.2 88.5 0.2 280 10.4
2003-09-17 07:39:14 51°9.13 2°37.2 88.5 0.2 282 10.4
2003-09-17 07:39:18 51°9.13 2°37.2 88.5 0.2 295 10.4
2003-09-17 07:39:22 51°9.13 2°37.2 88.5 0.2 301 10.4
2003-09-17 07:39:28 51°9.13 2°37.2 88.5 0.2 287 10.4
2003-09-17 07:39:34 51°9.13 2°37.2 88.5 0.2 301 10.4
2003-09-17 07:39:38 51°9.13 2°37.2 88.5 0.2 278 10.4
2003-09-17 07:39:42 51°9.13 2°37.2 88.5 0.2 299 10.4
2003-09-17 07:39:48 51°9.13 2°37.2 88.5 0.2 278 10.5
2003-09-17 07:39:54 51°9.13 2°37.2 88.5 0.2 300 10.5
2003-09-17 07:39:58 51°9.13 2°37.2 88.5 0.2 289 10.4
2003-09-17 07:40:02 51°9.13 2°37.2 88.5 0.2 289 10.5
2003-09-17 07:40:08 51°9.13 2°37.2 88.5 0.2 275 10.5
2003-09-17 07:40:12 51°9.13 2°37.2 88.6 0.2 310 10.4
2003-09-17 07:40:18 51°9.13 2°37.2 88.7 0.2 275 10.5
2003-09-17 07:40:22 51°9.13 2°37.2 88.8 0.2 293 10.4
2003-09-17 07:40:28 51°9.13 2°37.2 88.8 0.2 269 10.4
2003-09-17 07:40:34 51°9.13 2°37.19 88.9 0.2 303 10.5
2003-09-17 07:40:38 51°9.13 2°37.19 89 0.2 277 10.5
2003-09-17 07:40:44 51°9.13 2°37.19 89 0.2 299 10.4
2003-09-17 07:40:48 51°9.13 2°37.19 89.2 0.2 258 10.4
2003-09-17 07:40:54 51°9.13 2°37.19 89.2 0.2 292 10.3
2003-09-17 07:40:58 51°9.13 2°37.19 89.3 0.2 275 10.4
2003-09-17 07:41:02 51°9.13 2°37.19 89.4 0.2 291 10.4
2003-09-17 07:41:08 51°9.13 2°37.19 89.5 0.2 270 10.4
2003-09-17 07:41:14 51°9.13 2°37.19 89.6 0.2 287 10.4
2003-09-17 07:41:18 51°9.13 2°37.19 89.7 0.2 277 10.4
2003-09-17 07:41:22 51°9.13 2°37.19 89.9 0.2 287 10.5
2003-09-17 07:41:28 51°9.13 2°37.19 89.9 0.2 283 10.4
2003-09-17 07:41:34 51°9.13 2°37.19 89.9 0.2 283 10.4
2003-09-17 07:41:38 51°9.13 2°37.19 90 0.2 279 10.4
2003-09-17 07:41:42 51°9.13 2°37.19 90 0.2 278 10.5
2003-09-17 07:41:48 51°9.13 2°37.19 90.1 0.2 273 10.5
2003-09-17 07:41:54 51°9.13 2°37.19 90.2 0.2 279 10.5
2003-09-17 07:41:58 51°9.13 2°37.19 90.3 0.3 277 10.4
2003-09-17 07:42:02 51°9.13 2°37.19 90.4 0.2 280 10.4
2003-09-17 07:42:08 51°9.13 2°37.18 90.5 0.2 273 10.4
2003-09-17 07:42:14 51°9.13 2°37.18 90.6 0.3 281 10.5
2003-09-17 07:42:18 51°9.13 2°37.18 90.7 0.3 269 10.4
2003-09-17 07:42:22 51°9.13 2°37.18 90.7 0.3 282 10.5
2003-09-17 07:42:28 51°9.13 2°37.18 90.8 0.3 275 10.4
2003-09-17 07:42:34 51°9.13 2°37.18 90.8 0.3 278 10.5
2003-09-17 07:42:38 51°9.13 2°37.18 90.9 0.3 255 10.5
2003-09-17 07:42:42 51°9.13 2°37.18 91.1 0.3 280 10.4
2003-09-17 07:42:48 51°9.13 2°37.18 91.1 0.3 267 10.4
2003-09-17 07:42:54 51°9.13 2°37.18 91.2 0.2 275 10.4
2003-09-17 07:42:58 51°9.13 2°37.18 91.2 0.3 272 10.4
2003-09-17 07:43:02 51°9.13 2°37.18 91.2 0.3 272 10.5
2003-09-17 07:43:08 51°9.13 2°37.18 91.4 0.3 273 10.4
2003-09-17 07:43:12 51°9.13 2°37.18 91.4 0.3 268 10.4
2003-09-17 07:43:18 51°9.13 2°37.18 91.4 0.2 282 10.4
2003-09-17 07:43:22 51°9.13 2°37.18 91.5 0.3 268 10.4
2003-09-17 07:43:28 51°9.13 2°37.18 91.6 0.3 281 10.4
2003-09-17 07:43:34 51°9.13 2°37.17 91.6 0.3 269 10.4
2003-09-17 07:43:38 51°9.13 2°37.17 91.7 0.3 276 10.4
2003-09-17 07:43:42 51°9.13 2°37.17 91.7 0.3 270 10.4
2003-09-17 07:43:48 51°9.13 2°37.17 91.8 0.3 278 10.4
2003-09-17 07:43:52 51°9.13 2°37.17 91.9 0.3 282 10.4
2003-09-17 07:43:58 51°9.13 2°37.17 92 0.3 284 10.4
2003-09-17 07:44:02 51°9.13 2°37.17 92.1 0.3 275 10.4
2003-09-17 07:44:08 51°9.13 2°37.17 92.1 0.3 281 10.5
2003-09-17 07:44:14 51°9.13 2°37.17 92.1 0.3 273 10.4
2003-09-17 07:44:18 51°9.13 2°37.17 92.1 0.3 265 10.4
2003-09-17 07:44:22 51°9.13 2°37.17 92.1 0.3 276 10.5
2003-09-17 07:44:28 51°9.13 2°37.17 92.3 0.3 274 10.4
2003-09-17 07:44:32 51°9.13 2°37.17 92.3 0.3 276 10.5
2003-09-17 07:44:38 51°9.13 2°37.17 92.4 0.3 265 10.4
2003-09-17 07:44:42 51°9.13 2°37.17 92.4 0.3 266 10.4
2003-09-17 07:44:48 51°9.13 2°37.17 92.5 0.3 265 10.4
2003-09-17 07:44:52 51°9.13 2°37.16 92.6 0.3 284 10.4
2003-09-17 07:44:58 51°9.13 2°37.16 92.7 0.3 267 10.5
2003-09-17 07:45:02 51°9.13 2°37.16 92.7 0.3 272 10.4
2003-09-17 07:45:08 51°9.13 2°37.16 92.9 0.3 268 10.4
2003-09-17 07:45:14 51°9.13 2°37.16 92.9 0.3 282 10.5
2003-09-17 07:45:18 51°9.13 2°37.16 92.9 0.3 259 10.5
2003-09-17 07:45:24 51°9.13 2°37.16 93 0.3 273 10.4
2003-09-17 07:45:28 51°9.13 2°37.16 93.2 0.3 268 10.5